createdAt,value
2019-03-16T00:00:30.038Z,41.53
2019-03-16T00:02:58.991Z,41.30
2019-03-16T00:05:27.904Z,48.27
2019-03-16T00:07:56.750Z,50.67
2019-03-16T00:10:25.576Z,57.63
2019-03-16T00:12:54.500Z,55.63
2019-03-16T00:15:23.469Z,43.33
2019-03-16T00:17:52.329Z,57.67
2019-03-16T00:20:21.168Z,58.73
2019-03-16T00:22:50.021Z,57.37
2019-03-16T00:25:18.859Z,24.90
2019-03-16T00:27:47.715Z,32.50
2019-03-16T00:30:16.813Z,59.50
2019-03-16T00:32:45.731Z,52.60
2019-03-16T00:35:14.675Z,67.37
2019-03-16T00:37:43.732Z,57.40
2019-03-16T00:40:12.826Z,59.50
2019-03-16T00:42:41.817Z,54.03
2019-03-16T00:45:10.827Z,58.03
2019-03-16T00:47:39.768Z,54.67
2019-03-16T00:50:09.392Z,49.77
2019-03-16T00:52:38.244Z,47.23
2019-03-16T00:55:07.368Z,48.10
2019-03-16T00:57:36.373Z,50.57
2019-03-16T01:00:06.208Z,38.03
2019-03-16T01:02:35.225Z,35.27
2019-03-16T01:05:04.566Z,41.10
2019-03-16T01:07:33.422Z,43.70
2019-03-16T01:10:02.338Z,33.53
2019-03-16T01:12:31.280Z,29.80
2019-03-16T01:15:00.214Z,41.47
2019-03-16T01:17:29.350Z,57.83
2019-03-16T01:19:58.308Z,57.20
2019-03-16T01:22:27.168Z,49.60
2019-03-16T01:24:56.078Z,56.60
2019-03-16T01:27:24.913Z,50.07
2019-03-16T01:29:53.758Z,51.83
2019-03-16T01:32:22.665Z,50.50
2019-03-16T01:34:51.598Z,56.70
2019-03-16T01:37:20.440Z,60.37
2019-03-16T01:39:49.317Z,58.20
2019-03-16T01:42:18.213Z,55.93
2019-03-16T01:44:47.148Z,57.73
2019-03-16T01:47:16.142Z,62.33
2019-03-16T01:49:45.113Z,63.73
2019-03-16T01:52:14.066Z,52.73
2019-03-16T01:54:43.005Z,56.30
2019-03-16T01:57:11.838Z,53.43
2019-03-16T01:59:40.803Z,59.37
2019-03-16T02:02:09.632Z,55.23
2019-03-16T02:04:38.569Z,61.63
2019-03-16T02:07:08.054Z,61.63
2019-03-16T02:09:36.904Z,57.67
2019-03-16T02:12:05.828Z,66.50
2019-03-16T02:14:34.865Z,79.57
2019-03-16T02:17:03.784Z,79.10
2019-03-16T02:19:35.730Z,67.47
2019-03-16T02:22:03.263Z,72.90
2019-03-16T02:24:32.212Z,81.13
2019-03-16T02:27:01.039Z,71.87
2019-03-16T02:29:30.066Z,76.57
2019-03-16T02:31:59.448Z,82.13
2019-03-16T02:34:28.299Z,83.30
2019-03-16T02:36:57.139Z,76.70
2019-03-16T02:39:26.068Z,73.03
2019-03-16T02:41:54.892Z,66.07
2019-03-16T02:44:23.742Z,76.70
2019-03-16T02:46:54.385Z,73.17
2019-03-16T02:49:24.124Z,83.93
2019-03-16T02:51:53.172Z,78.03
2019-03-16T02:54:22.244Z,79.30
2019-03-16T02:57:10.272Z,86.80
2019-03-16T02:59:39.309Z,86.10
2019-03-16T03:02:08.145Z,91.47
2019-03-16T03:04:37.010Z,83.40
2019-03-16T03:07:06.009Z,98.07
2019-03-16T03:09:34.842Z,103.20
2019-03-16T03:12:03.835Z,100.20
2019-03-16T03:14:32.715Z,99.00
2019-03-16T03:17:01.544Z,97.33
2019-03-16T03:19:30.413Z,103.80
2019-03-16T03:21:59.312Z,106.90
2019-03-16T03:24:28.261Z,95.17
2019-03-16T03:26:57.101Z,88.17
2019-03-16T03:29:25.980Z,104.23
2019-03-16T03:31:54.920Z,92.93
2019-03-16T03:34:23.759Z,90.00
2019-03-16T03:36:52.685Z,101.20
2019-03-16T03:39:21.600Z,100.73
2019-03-16T03:41:50.437Z,95.27
2019-03-16T03:44:19.298Z,97.87
2019-03-16T03:46:48.165Z,107.00
2019-03-16T03:49:17.008Z,108.10
2019-03-16T03:51:45.849Z,115.63
2019-03-16T03:54:14.852Z,120.40
2019-03-16T03:56:43.787Z,124.37
2019-03-16T03:59:12.618Z,123.57
2019-03-16T04:01:41.562Z,120.93
2019-03-16T04:04:15.534Z,134.07
2019-03-16T04:06:41.113Z,127.23
2019-03-16T04:09:09.962Z,139.33
2019-03-16T04:11:38.937Z,119.10
2019-03-16T04:14:07.929Z,108.07
2019-03-16T04:16:36.796Z,108.13
2019-03-16T04:19:05.707Z,117.33
2019-03-16T04:21:34.709Z,105.27
2019-03-16T04:24:03.637Z,111.80
2019-03-16T04:26:32.476Z,110.50
2019-03-16T04:29:01.336Z,132.13
2019-03-16T04:31:30.381Z,110.90
2019-03-16T04:33:59.258Z,105.90
2019-03-16T04:36:28.122Z,120.47
2019-03-16T04:38:57.008Z,121.53
2019-03-16T04:41:25.873Z,119.30
2019-03-16T04:43:54.876Z,127.07
2019-03-16T04:46:23.735Z,125.43
2019-03-16T04:48:52.678Z,129.27
2019-03-16T04:51:21.604Z,140.20
2019-03-16T04:53:50.457Z,128.40
2019-03-16T04:56:19.330Z,134.23
2019-03-16T04:58:48.182Z,131.37
2019-03-16T05:01:17.151Z,132.03
2019-03-16T05:03:45.992Z,132.10
2019-03-16T05:06:14.831Z,141.20
2019-03-16T05:08:43.673Z,134.83
2019-03-16T05:11:12.566Z,137.63
2019-03-16T05:13:41.521Z,143.03
2019-03-16T05:16:10.492Z,143.33
2019-03-16T05:18:39.413Z,139.70
2019-03-16T05:21:08.338Z,154.77
2019-03-16T05:23:37.188Z,154.70
2019-03-16T05:26:06.105Z,154.10
2019-03-16T05:28:35.016Z,161.00
2019-03-16T05:31:03.963Z,169.47
2019-03-16T05:33:33.229Z,163.70
2019-03-16T05:36:02.180Z,189.43
2019-03-16T05:38:31.064Z,183.30
2019-03-16T05:41:00.010Z,217.50
2019-03-16T05:43:28.948Z,216.27
2019-03-16T05:45:57.800Z,188.10
2019-03-16T05:48:26.715Z,201.50
2019-03-16T05:50:57.525Z,204.43
2019-03-16T05:53:26.145Z,202.83
2019-03-16T05:55:54.990Z,213.17
2019-03-16T05:58:23.828Z,207.53
2019-03-16T06:00:52.663Z,232.70
2019-03-16T06:03:21.505Z,236.17
2019-03-16T06:05:50.341Z,257.80
2019-03-16T06:08:19.215Z,257.40
2019-03-16T06:10:48.044Z,244.90
2019-03-16T06:13:16.957Z,246.73
2019-03-16T06:15:45.949Z,235.73
2019-03-16T06:18:14.843Z,239.37
2019-03-16T06:20:43.775Z,259.27
2019-03-16T06:23:12.643Z,245.07
2019-03-16T06:25:41.596Z,258.60
2019-03-16T06:28:10.529Z,258.83
2019-03-16T06:30:39.372Z,273.10
2019-03-16T06:33:08.310Z,262.50
2019-03-16T06:35:37.233Z,264.07
2019-03-16T06:38:06.094Z,273.77
2019-03-16T06:40:35.025Z,273.90
2019-03-16T06:43:03.955Z,273.30
2019-03-16T06:45:32.877Z,284.73
2019-03-16T06:48:01.827Z,294.87
2019-03-16T06:50:30.660Z,292.03
2019-03-16T06:52:59.520Z,291.20
2019-03-16T06:55:28.424Z,274.47
2019-03-16T06:58:00.409Z,265.73
2019-03-16T07:00:29.251Z,273.93
2019-03-16T07:02:58.283Z,291.80
2019-03-16T07:05:37.614Z,290.60
2019-03-16T07:07:57.773Z,284.70
2019-03-16T07:10:27.725Z,286.90
2019-03-16T07:12:56.664Z,293.37
2019-03-16T07:15:25.612Z,311.80
2019-03-16T07:17:54.528Z,329.70
2019-03-16T07:20:23.395Z,321.37
2019-03-16T07:22:52.253Z,332.20
2019-03-16T07:25:21.128Z,347.80
2019-03-16T07:27:50.101Z,363.90
2019-03-16T07:30:18.992Z,343.30
2019-03-16T07:32:47.843Z,338.23
2019-03-16T07:35:16.785Z,356.57
2019-03-16T07:37:45.658Z,353.60
2019-03-16T07:40:14.759Z,378.57
2019-03-16T07:42:43.688Z,347.90
2019-03-16T07:45:12.926Z,341.30
2019-03-16T07:47:41.856Z,347.83
2019-03-16T07:50:11.001Z,371.77
2019-03-16T07:52:40.021Z,370.50
2019-03-16T07:55:09.217Z,391.83
2019-03-16T07:57:40.529Z,391.43
2019-03-16T08:00:08.848Z,395.07
2019-03-16T08:02:37.840Z,393.57
2019-03-16T08:05:17.392Z,388.53
2019-03-16T08:07:37.417Z,380.73
2019-03-16T08:10:06.887Z,289.67
2019-03-16T08:12:35.781Z,303.37
2019-03-16T08:15:05.187Z,314.23
2019-03-16T08:17:34.035Z,312.33
2019-03-16T08:20:02.996Z,328.10
2019-03-16T08:22:31.944Z,362.07
2019-03-16T08:25:00.820Z,357.43
2019-03-16T08:27:29.716Z,363.47
2019-03-16T08:29:58.576Z,376.93
2019-03-16T08:32:27.436Z,394.13
2019-03-16T08:34:56.310Z,391.80
2019-03-16T08:37:25.171Z,405.23
2019-03-16T08:39:54.120Z,396.57
2019-03-16T08:42:22.996Z,408.93
2019-03-16T08:44:51.860Z,423.10
2019-03-16T08:47:20.780Z,413.93
2019-03-16T08:49:49.779Z,411.03
2019-03-16T08:52:18.616Z,403.63
2019-03-16T08:54:47.477Z,400.33
2019-03-16T08:57:16.323Z,401.33
2019-03-16T08:59:45.232Z,417.57
2019-03-16T09:02:14.244Z,406.10
2019-03-16T09:04:43.180Z,406.60
2019-03-16T09:07:12.140Z,382.57
2019-03-16T09:09:40.973Z,394.57
2019-03-16T09:12:09.892Z,417.30
2019-03-16T09:14:38.846Z,394.40
2019-03-16T09:17:09.107Z,421.07
2019-03-16T09:19:38.071Z,423.13
2019-03-16T09:22:08.580Z,427.53
2019-03-16T09:24:37.459Z,487.50
2019-03-16T09:27:06.352Z,462.10
2019-03-16T09:29:35.308Z,471.67
2019-03-16T09:32:04.264Z,438.57
2019-03-16T09:34:33.116Z,445.37
2019-03-16T09:37:01.973Z,469.80
2019-03-16T09:39:30.804Z,461.10
2019-03-16T09:41:59.801Z,446.17
2019-03-16T09:44:28.668Z,446.83
2019-03-16T09:46:57.549Z,448.17
2019-03-16T09:49:26.394Z,461.13
2019-03-16T09:51:55.265Z,458.23
2019-03-16T09:54:24.932Z,454.27
2019-03-16T09:57:01.196Z,447.27
2019-03-16T09:59:24.368Z,451.77
2019-03-16T10:01:53.247Z,454.63
2019-03-16T10:04:22.192Z,446.57
2019-03-16T10:06:51.087Z,447.90
2019-03-16T10:09:20.133Z,422.30
2019-03-16T10:11:49.098Z,422.53
2019-03-16T10:14:18.045Z,422.20
2019-03-16T10:16:46.969Z,415.57
2019-03-16T10:19:15.902Z,419.47
2019-03-16T10:21:44.764Z,417.10
2019-03-16T10:24:13.628Z,425.47
2019-03-16T10:26:42.548Z,418.20
2019-03-16T10:29:11.404Z,434.37
2019-03-16T10:31:40.265Z,431.40
2019-03-16T10:34:09.123Z,451.63
2019-03-16T10:36:38.256Z,426.57
2019-03-16T10:39:07.748Z,426.03
2019-03-16T10:41:36.623Z,424.20
2019-03-16T10:44:05.618Z,427.03
2019-03-16T10:46:34.518Z,434.77
2019-03-16T10:49:03.373Z,424.73
2019-03-16T10:51:32.221Z,425.23
2019-03-16T10:54:01.089Z,430.90
2019-03-16T10:56:29.991Z,449.43
2019-03-16T10:58:58.875Z,450.63
2019-03-16T11:01:27.717Z,452.30
2019-03-16T11:03:56.598Z,451.60
2019-03-16T11:06:25.433Z,457.00
2019-03-16T11:08:54.272Z,482.20
2019-03-16T11:11:23.128Z,480.90
2019-03-16T11:13:52.032Z,460.30
2019-03-16T11:16:23.904Z,450.90
2019-03-16T11:18:52.752Z,451.40
2019-03-16T11:21:21.720Z,439.50
2019-03-16T11:23:50.600Z,433.87
2019-03-16T11:26:19.715Z,425.13
2019-03-16T11:28:48.624Z,419.50
2019-03-16T11:31:17.637Z,406.43
2019-03-16T11:33:48.423Z,419.77
2019-03-16T11:36:17.205Z,417.20
2019-03-16T11:38:46.156Z,412.83
2019-03-16T11:41:15.156Z,445.53
2019-03-16T11:43:44.036Z,457.70
2019-03-16T11:46:12.896Z,468.60
2019-03-16T11:48:41.784Z,457.10
2019-03-16T11:51:10.805Z,478.40
2019-03-16T11:53:39.815Z,456.70
2019-03-16T11:56:18.086Z,452.67
2019-03-16T11:58:39.425Z,467.80
2019-03-16T12:01:08.259Z,468.60
2019-03-16T12:03:37.349Z,486.10
2019-03-16T12:06:06.266Z,501.73
2019-03-16T12:08:35.128Z,499.60
2019-03-16T12:11:03.980Z,499.03
2019-03-16T12:13:32.850Z,511.80
2019-03-16T12:16:01.754Z,500.80
2019-03-16T12:18:30.719Z,510.47
2019-03-16T12:20:59.576Z,521.57
2019-03-16T12:23:33.760Z,512.87
2019-03-16T12:26:02.750Z,492.97
2019-03-16T12:28:31.581Z,552.17
2019-03-16T12:31:00.588Z,492.83
2019-03-16T12:33:29.425Z,495.90
2019-03-16T12:35:58.292Z,495.13
2019-03-16T12:38:27.153Z,493.10
2019-03-16T12:40:56.031Z,500.73
2019-03-16T12:43:24.935Z,502.30
2019-03-16T12:45:53.828Z,492.80
2019-03-16T12:48:22.751Z,497.00
2019-03-16T12:50:54.293Z,503.23
2019-03-16T12:53:22.197Z,498.60
2019-03-16T12:55:51.119Z,518.57
2019-03-16T12:58:20.008Z,513.90
2019-03-16T13:00:48.884Z,517.93
2019-03-16T13:03:17.727Z,517.40
2019-03-16T13:05:46.925Z,509.80
2019-03-16T13:08:15.886Z,503.60
2019-03-16T13:10:44.840Z,504.60
2019-03-16T13:13:13.856Z,511.00
2019-03-16T13:15:42.968Z,537.00
2019-03-16T13:18:11.911Z,534.57
2019-03-16T13:20:40.775Z,543.17
2019-03-16T13:23:09.657Z,550.80
2019-03-16T13:25:38.593Z,547.83
2019-03-16T13:28:07.516Z,554.10
2019-03-16T13:30:36.374Z,556.47
2019-03-16T13:33:05.285Z,566.90
2019-03-16T13:35:34.154Z,564.33
2019-03-16T13:38:03.006Z,566.00
2019-03-16T13:40:31.927Z,566.30
2019-03-16T13:43:00.863Z,575.00
2019-03-16T13:45:29.729Z,571.70
2019-03-16T13:47:59.070Z,559.83
2019-03-16T13:50:27.999Z,557.57
2019-03-16T13:52:57.241Z,553.70
2019-03-16T13:55:26.108Z,557.20
2019-03-16T13:57:55.042Z,581.03
2019-03-16T14:00:24.264Z,570.10
2019-03-16T14:02:54.572Z,579.77
2019-03-16T14:05:23.411Z,580.67
2019-03-16T14:07:52.355Z,586.80
2019-03-16T14:10:21.591Z,579.63
2019-03-16T14:12:50.458Z,580.77
2019-03-16T14:15:19.439Z,577.07
2019-03-16T14:17:48.288Z,587.87
2019-03-16T14:20:17.571Z,590.17
2019-03-16T14:22:46.434Z,590.93
2019-03-16T14:25:15.395Z,595.53
2019-03-16T14:27:44.338Z,589.97
2019-03-16T14:30:29.053Z,592.23
2019-03-16T14:32:44.505Z,572.90
2019-03-16T14:35:13.424Z,575.03
2019-03-16T14:37:42.457Z,569.23
2019-03-16T14:40:13.965Z,563.43
2019-03-16T14:42:42.903Z,566.13
2019-03-16T14:45:12.066Z,555.60
2019-03-16T14:47:40.996Z,555.60
2019-03-16T14:50:15.990Z,549.87
2019-03-16T14:52:43.718Z,552.50
2019-03-16T14:55:12.705Z,539.57
2019-03-16T14:57:42.185Z,537.07
2019-03-16T15:00:12.636Z,550.60
2019-03-16T15:02:42.322Z,545.27
2019-03-16T15:05:11.421Z,535.30
2019-03-16T15:07:40.454Z,527.57
2019-03-16T15:10:09.490Z,535.73
2019-03-16T15:12:38.421Z,488.33
2019-03-16T15:15:08.841Z,525.13
2019-03-16T15:17:37.698Z,467.80
2019-03-16T15:20:06.925Z,486.90
2019-03-16T15:22:35.895Z,446.33
2019-03-16T15:25:05.515Z,422.87
2019-03-16T15:27:34.505Z,404.37
2019-03-16T15:30:03.530Z,463.87
2019-03-16T15:32:32.397Z,400.00
2019-03-16T15:35:01.284Z,403.20
2019-03-16T15:37:30.215Z,405.37
2019-03-16T15:39:59.046Z,340.97
2019-03-16T15:42:27.960Z,381.90
2019-03-16T15:44:56.892Z,366.50
2019-03-16T15:47:25.751Z,425.53
2019-03-16T15:49:54.601Z,446.53
2019-03-16T15:52:23.463Z,324.93
2019-03-16T15:54:52.395Z,349.63
2019-03-16T15:57:21.316Z,414.53
2019-03-16T15:59:50.233Z,337.93
2019-03-16T16:02:19.246Z,355.73
2019-03-16T16:04:48.157Z,350.83
2019-03-16T16:07:17.023Z,445.57
2019-03-16T16:09:45.894Z,452.47
2019-03-16T16:12:14.727Z,445.83
2019-03-16T16:14:43.598Z,463.43
2019-03-16T16:17:12.604Z,461.20
2019-03-16T16:19:41.468Z,474.27
2019-03-16T16:22:10.312Z,475.77
2019-03-16T16:24:39.247Z,431.13
2019-03-16T16:27:08.146Z,446.83
2019-03-16T16:29:36.998Z,405.07
2019-03-16T16:32:06.444Z,416.23
2019-03-16T16:34:35.500Z,325.10
2019-03-16T16:37:04.517Z,355.23
2019-03-16T16:39:33.403Z,330.17
2019-03-16T16:42:02.326Z,361.40
2019-03-16T16:44:31.180Z,427.30
2019-03-16T16:47:00.104Z,407.93
2019-03-16T16:49:28.953Z,450.80
2019-03-16T16:51:57.896Z,398.57
2019-03-16T16:54:26.782Z,321.27
2019-03-16T16:56:55.653Z,389.57
2019-03-16T16:59:24.583Z,380.30
2019-03-16T17:01:53.512Z,351.87
2019-03-16T17:04:23.010Z,308.40
2019-03-16T17:06:51.952Z,339.80
2019-03-16T17:09:20.884Z,172.05
2019-03-16T17:11:49.735Z,425.20
2019-03-16T17:14:18.659Z,394.60
2019-03-16T17:16:47.516Z,401.77
2019-03-16T17:19:16.404Z,401.63
2019-03-16T17:21:45.307Z,372.03
2019-03-16T17:24:14.127Z,114.43
2019-03-16T17:26:42.980Z,32.70
2019-03-16T17:29:11.833Z,249.23
2019-03-16T17:31:42.508Z,196.73
2019-03-16T17:34:11.361Z,208.77
2019-03-16T17:36:40.334Z,191.13
2019-03-16T17:39:09.388Z,189.30
2019-03-16T17:41:38.236Z,140.60
2019-03-16T17:44:07.097Z,104.97
2019-03-16T17:46:35.987Z,175.17
2019-03-16T17:49:04.905Z,201.97
2019-03-16T17:51:33.796Z,243.43
2019-03-16T17:54:02.651Z,245.73
2019-03-16T17:56:31.513Z,250.27
2019-03-16T17:59:00.367Z,200.50
2019-03-16T18:01:29.262Z,169.80
2019-03-16T18:03:58.132Z,166.23
2019-03-16T18:06:27.106Z,152.17
2019-03-16T18:08:55.963Z,133.57
2019-03-16T18:11:24.887Z,208.73
2019-03-16T18:13:53.770Z,199.33
2019-03-16T18:16:22.616Z,163.70
2019-03-16T18:18:51.469Z,181.73
2019-03-16T18:21:20.341Z,29.67
2019-03-16T18:23:49.224Z,153.53
2019-03-16T18:26:18.109Z,107.67
2019-03-16T18:28:46.958Z,118.03
2019-03-16T18:31:15.812Z,133.53
2019-03-16T18:33:44.688Z,252.67
2019-03-16T18:36:13.554Z,281.23
2019-03-16T18:38:42.447Z,226.00
2019-03-16T18:41:11.311Z,334.93
2019-03-16T18:43:40.172Z,285.73
2019-03-16T18:46:09.017Z,308.73
2019-03-16T18:48:37.880Z,336.67
2019-03-16T18:51:06.853Z,354.87
2019-03-16T18:53:35.708Z,393.33
2019-03-16T18:56:04.567Z,436.63
2019-03-16T18:58:37.631Z,429.57
2019-03-16T19:01:04.082Z,393.90
2019-03-16T19:03:32.946Z,419.07
2019-03-16T19:06:01.866Z,407.37
2019-03-16T19:08:34.285Z,446.97
2019-03-16T19:11:02.905Z,396.60
2019-03-16T19:13:31.819Z,369.43
2019-03-16T19:16:00.740Z,351.67
2019-03-16T19:18:29.600Z,362.30
2019-03-16T19:20:58.463Z,373.90
2019-03-16T19:23:27.378Z,448.33
2019-03-16T19:25:57.431Z,370.30
2019-03-16T19:28:26.396Z,369.10
2019-03-16T19:30:55.268Z,358.40
2019-03-16T19:33:24.129Z,395.67
2019-03-16T19:35:52.980Z,455.00
2019-03-16T19:38:21.908Z,400.07
2019-03-16T19:40:50.836Z,425.37
2019-03-16T19:43:19.703Z,400.30
2019-03-16T19:45:48.557Z,409.37
2019-03-16T19:48:17.497Z,418.30
2019-03-16T19:50:46.419Z,407.93
2019-03-16T19:53:15.280Z,406.00
2019-03-16T19:55:44.120Z,365.17
2019-03-16T19:58:13.160Z,347.00
2019-03-16T20:00:42.000Z,351.77
2019-03-16T20:03:10.963Z,394.87
2019-03-16T20:05:39.796Z,423.60
2019-03-16T20:08:08.727Z,383.93
2019-03-16T20:10:37.730Z,365.80
2019-03-16T20:13:06.734Z,359.03
2019-03-16T20:15:35.671Z,362.57
2019-03-16T20:18:04.664Z,400.60
2019-03-16T20:20:33.573Z,372.53
2019-03-16T20:23:02.511Z,365.70
2019-03-16T20:25:31.417Z,375.30
2019-03-16T20:28:00.352Z,356.57
2019-03-16T20:30:29.273Z,379.37
2019-03-16T20:33:03.824Z,370.40
2019-03-16T20:35:28.730Z,331.73
2019-03-16T20:37:57.576Z,344.57
2019-03-16T20:40:26.422Z,310.50
2019-03-16T20:42:55.362Z,339.53
2019-03-16T20:45:24.278Z,356.43
2019-03-16T20:47:53.279Z,348.73
2019-03-16T20:50:22.146Z,356.57
2019-03-16T20:52:51.029Z,387.33
2019-03-16T20:55:19.887Z,369.03
2019-03-16T20:57:48.820Z,389.93
2019-03-16T21:00:17.907Z,367.70
2019-03-16T21:02:47.180Z,426.20
2019-03-16T21:05:16.348Z,424.03
2019-03-16T21:07:45.278Z,406.30
2019-03-16T21:10:14.407Z,402.60
2019-03-16T21:12:43.432Z,414.33
2019-03-16T21:15:12.548Z,418.73
2019-03-16T21:17:47.065Z,421.47
2019-03-16T21:20:16.242Z,427.07
2019-03-16T21:22:49.420Z,419.87
2019-03-16T21:25:18.753Z,449.57
2019-03-16T21:27:47.679Z,436.60
2019-03-16T21:30:16.789Z,440.23
2019-03-16T21:32:45.704Z,452.97
2019-03-16T21:35:14.645Z,431.47
2019-03-16T21:37:43.648Z,437.87
2019-03-16T21:40:12.685Z,433.40
2019-03-16T21:42:41.616Z,432.47
2019-03-16T21:45:10.887Z,448.53
2019-03-16T21:47:39.860Z,441.00
2019-03-16T21:50:09.524Z,446.30
2019-03-16T21:52:38.464Z,448.57
2019-03-16T21:55:07.834Z,455.10
2019-03-16T21:57:36.693Z,477.27
2019-03-16T22:00:07.553Z,451.97
2019-03-16T22:02:36.406Z,444.33
2019-03-16T22:05:05.575Z,446.10
2019-03-16T22:07:34.418Z,446.87
2019-03-16T22:10:03.377Z,444.90
2019-03-16T22:12:32.219Z,449.70
2019-03-16T22:15:01.100Z,425.63
2019-03-16T22:17:30.000Z,418.33
2019-03-16T22:19:58.857Z,405.63
2019-03-16T22:22:27.783Z,440.57
2019-03-16T22:24:56.649Z,425.47
2019-03-16T22:27:25.521Z,438.47
2019-03-16T22:29:54.387Z,439.13
2019-03-16T22:32:23.233Z,437.60
2019-03-16T22:34:52.248Z,430.37
2019-03-16T22:37:21.075Z,461.23
2019-03-16T22:39:49.927Z,419.50
2019-03-16T22:42:18.848Z,431.70
2019-03-16T22:44:47.693Z,421.37
2019-03-16T22:47:16.613Z,408.43
2019-03-16T22:49:45.464Z,422.47
2019-03-16T22:52:14.411Z,409.30
2019-03-16T22:54:43.260Z,403.60
2019-03-16T22:57:12.249Z,400.73
2019-03-16T22:59:41.283Z,361.07
2019-03-16T23:02:10.224Z,369.50
2019-03-16T23:04:39.170Z,378.97
2019-03-16T23:07:08.037Z,371.17
2019-03-16T23:09:37.033Z,367.90
2019-03-16T23:12:06.800Z,403.07
2019-03-16T23:14:35.724Z,389.37
2019-03-16T23:17:04.673Z,407.73
2019-03-16T23:19:33.531Z,416.87
2019-03-16T23:22:02.381Z,398.67
2019-03-16T23:24:31.321Z,398.80
2019-03-16T23:27:00.195Z,402.83
2019-03-16T23:29:29.105Z,379.47
2019-03-16T23:31:57.956Z,368.33
2019-03-16T23:34:26.801Z,365.13
2019-03-16T23:36:55.764Z,371.83
2019-03-16T23:39:24.611Z,372.17
2019-03-16T23:41:53.532Z,364.87
2019-03-16T23:44:22.372Z,371.03
2019-03-16T23:46:51.237Z,369.57
2019-03-16T23:49:20.156Z,370.67
2019-03-16T23:51:49.012Z,374.03
2019-03-16T23:54:17.871Z,351.50
2019-03-16T23:56:46.797Z,352.13
2019-03-16T23:59:15.628Z,373.43
